Time;durP1;ratioP1;P1;durP2;ratioP2;P2;SDS_P1;SDS_P2;PMS_P1;PMS_P2;Temp;Humidity;BMP_temperature;BMP_pressure;BME280_temperature;BME280_humidity;BME280_pressure;Samples;Min_cycle;Max_cycle;Signal;HPM_P1;HPM_P2
2021/01/14 00:00:42;;;;;;;11.33;3.80;;;9.10;99.90;;;;;;5068459;28;20239;-81
2021/01/14 00:03:10;;;;;;;8.43;4.00;;;9.00;99.90;;;;;;5052239;28;20234;-81
2021/01/14 00:05:37;;;;;;;9.53;3.10;;;9.00;99.90;;;;;;5052090;28;20226;-81
2021/01/14 00:08:04;;;;;;;10.00;3.30;;;9.00;99.90;;;;;;5051876;28;20238;-81
2021/01/14 00:10:31;;;;;;;8.43;3.83;;;8.90;99.90;;;;;;5052074;28;20274;-81
2021/01/14 00:12:57;;;;;;;8.00;4.17;;;8.90;99.90;;;;;;5052474;28;20233;-81
2021/01/14 00:15:24;;;;;;;12.73;3.80;;;8.90;99.90;;;;;;5052048;28;20243;-81
2021/01/14 00:17:52;;;;;;;8.70;3.87;;;8.80;99.90;;;;;;5052364;28;20193;-81
2021/01/14 00:20:21;;;;;;;12.63;4.23;;;8.80;99.90;;;;;;5051989;28;20322;-81
2021/01/14 00:22:47;;;;;;;9.13;3.53;;;8.80;99.90;;;;;;5051868;28;20684;-81
2021/01/14 00:25:15;;;;;;;8.63;3.30;;;8.80;99.90;;;;;;5061961;28;20737;-81
2021/01/14 00:27:42;;;;;;;9.33;3.60;;;8.70;99.90;;;;;;5059816;28;20274;-80
2021/01/14 00:30:12;;;;;;;9.40;3.77;;;8.70;99.90;;;;;;5052163;28;20230;-80
2021/01/14 00:32:39;;;;;;;7.13;3.30;;;8.70;99.90;;;;;;5051987;28;20281;-81
2021/01/14 00:35:07;;;;;;;11.90;3.70;;;8.70;99.90;;;;;;5051802;28;20229;-81
2021/01/14 00:37:52;;;;;;;11.50;3.87;;;8.70;99.90;;;;;;5051270;28;20263;-81
2021/01/14 00:40:22;;;;;;;9.00;3.93;;;8.70;99.90;;;;;;5051983;28;20261;-81
2021/01/14 00:42:54;;;;;;;8.97;3.40;;;8.70;99.90;;;;;;5052354;28;20191;-81
2021/01/14 00:45:21;;;;;;;9.37;3.20;;;8.70;99.90;;;;;;5051736;28;20221;-81
2021/01/14 00:47:47;;;;;;;7.37;3.60;;;8.70;99.90;;;;;;5052027;28;20210;-81
2021/01/14 00:50:14;;;;;;;9.03;3.90;;;8.60;99.90;;;;;;5051540;28;20235;-81
2021/01/14 00:52:41;;;;;;;10.73;4.17;;;8.60;99.90;;;;;;5052200;28;20306;-81
2021/01/14 00:55:09;;;;;;;8.17;3.27;;;8.60;99.90;;;;;;5052046;28;20235;-81
2021/01/14 00:57:36;;;;;;;8.57;3.40;;;8.60;99.90;;;;;;5051148;28;20242;-81
2021/01/14 01:00:05;;;;;;;11.93;4.43;;;8.60;99.90;;;;;;5050627;28;20751;-81
2021/01/14 01:02:31;;;;;;;9.23;3.90;;;8.60;99.90;;;;;;5051376;28;20237;-81
2021/01/14 01:04:57;;;;;;;10.37;4.20;;;8.50;99.90;;;;;;5052332;28;20252;-81
2021/01/14 01:07:25;;;;;;;11.67;4.90;;;8.50;99.90;;;;;;5053197;28;20228;-81
2021/01/14 01:09:51;;;;;;;12.63;5.37;;;8.50;99.90;;;;;;5071854;28;20216;-81
2021/01/14 01:12:18;;;;;;;11.10;5.03;;;8.50;99.90;;;;;;5061922;28;20671;-81
2021/01/14 01:14:44;;;;;;;14.03;5.50;;;8.50;99.90;;;;;;5058849;28;20228;-81
2021/01/14 01:17:11;;;;;;;12.53;5.03;;;8.50;99.90;;;;;;5052090;28;20279;-82
2021/01/14 01:19:37;;;;;;;13.37;6.17;;;8.50;99.90;;;;;;5050995;28;20269;-82
2021/01/14 01:22:03;;;;;;;17.50;5.90;;;8.50;99.90;;;;;;5051246;28;20680;-81
2021/01/14 01:24:31;;;;;;;14.03;5.63;;;8.50;99.90;;;;;;5051486;28;20276;-82
2021/01/14 01:26:57;;;;;;;15.27;4.73;;;8.50;99.90;;;;;;5051562;28;20199;-81
2021/01/14 01:29:27;;;;;;;11.73;4.60;;;8.50;99.90;;;;;;5051400;28;20687;-81
2021/01/14 01:31:53;;;;;;;12.17;4.63;;;8.50;99.90;;;;;;5051309;28;20302;-81
2021/01/14 01:34:20;;;;;;;10.97;4.73;;;8.50;99.90;;;;;;5051227;28;20237;-81
2021/01/14 01:36:50;;;;;;;11.67;4.17;;;8.50;99.90;;;;;;5051595;28;20234;-81
2021/01/14 01:39:17;;;;;;;12.10;4.30;;;8.50;99.90;;;;;;5051368;28;20263;-81
2021/01/14 01:41:45;;;;;;;10.83;4.40;;;8.50;99.90;;;;;;5051329;28;20233;-81
2021/01/14 01:44:13;;;;;;;14.33;3.90;;;8.60;99.90;;;;;;5058644;28;20323;-81
2021/01/14 01:46:39;;;;;;;11.77;3.77;;;8.60;99.90;;;;;;5054208;28;20633;-81
2021/01/14 01:49:06;;;;;;;8.70;3.73;;;8.60;99.90;;;;;;5054451;28;20232;-81
2021/01/14 01:51:35;;;;;;;7.87;3.50;;;8.60;99.90;;;;;;5054843;28;20243;-82
2021/01/14 01:54:02;;;;;;;9.77;3.50;;;8.60;99.90;;;;;;5054869;28;20538;-81
2021/01/14 01:56:30;;;;;;;10.37;3.50;;;8.60;99.90;;;;;;5054805;28;20237;-82
2021/01/14 01:58:58;;;;;;;8.50;3.97;;;8.60;99.90;;;;;;5054512;28;20624;-82
2021/01/14 02:01:25;;;;;;;10.97;4.37;;;8.60;99.90;;;;;;5066812;28;20232;-82
2021/01/14 02:03:52;;;;;;;20.47;3.97;;;8.70;99.90;;;;;;5054324;28;20209;-82
2021/01/14 02:06:19;;;;;;;10.87;3.83;;;8.70;99.90;;;;;;5054918;28;20231;-81
2021/01/14 02:08:49;;;;;;;12.10;4.07;;;8.70;99.90;;;;;;5054285;28;20242;-81
2021/01/14 02:11:21;;;;;;;13.53;3.63;;;8.70;99.90;;;;;;5054534;28;20280;-82
2021/01/14 02:14:12;;;;;;;11.40;3.87;;;8.70;99.90;;;;;;5053934;28;20228;-81
2021/01/14 02:16:38;;;;;;;11.53;3.60;;;8.70;99.90;;;;;;5055127;28;20230;-81
2021/01/14 02:19:13;;;;;;;11.87;4.27;;;8.70;99.90;;;;;;5053937;28;20303;-81
2021/01/14 02:21:40;;;;;;;7.60;3.10;;;8.70;99.90;;;;;;5055179;28;20231;-80
2021/01/14 02:24:12;;;;;;;7.93;3.23;;;8.70;99.90;;;;;;5053777;28;20289;-80
2021/01/14 02:26:42;;;;;;;9.40;3.17;;;8.70;99.90;;;;;;5063154;28;20208;-80
2021/01/14 02:29:09;;;;;;;10.03;3.27;;;8.70;99.90;;;;;;5054319;28;20273;-81
2021/01/14 02:31:35;;;;;;;11.20;2.93;;;8.70;99.90;;;;;;5053909;28;20241;-80
2021/01/14 02:34:02;;;;;;;10.83;3.27;;;8.70;99.90;;;;;;5053834;28;20652;-81
2021/01/14 02:36:29;;;;;;;13.07;3.10;;;8.60;99.90;;;;;;5061416;28;20283;-80
2021/01/14 02:38:55;;;;;;;8.13;3.57;;;8.60;99.90;;;;;;5060810;28;20202;-80
2021/01/14 02:41:22;;;;;;;7.57;3.17;;;8.70;99.90;;;;;;5054041;28;20285;-80
2021/01/14 02:43:50;;;;;;;10.93;3.63;;;8.60;99.90;;;;;;5053672;28;20196;-81
2021/01/14 02:46:17;;;;;;;11.60;3.27;;;8.60;99.90;;;;;;5053429;28;20209;-80
2021/01/14 02:48:47;;;;;;;8.57;2.83;;;8.60;99.90;;;;;;5054980;28;20672;-80
2021/01/14 02:51:18;;;;;;;9.43;3.10;;;8.70;99.90;;;;;;5071070;28;20236;-80
2021/01/14 02:53:45;;;;;;;13.53;3.53;;;8.70;99.90;;;;;;5066141;28;20246;-80
2021/01/14 02:56:13;;;;;;;11.03;3.43;;;8.70;99.90;;;;;;5062324;28;20209;-80
2021/01/14 02:58:40;;;;;;;11.07;3.20;;;8.70;99.90;;;;;;5053701;28;20294;-81
2021/01/14 03:01:07;;;;;;;9.43;2.80;;;8.70;99.90;;;;;;5052811;28;20248;-80
2021/01/14 03:03:34;;;;;;;10.60;2.97;;;8.70;99.90;;;;;;5058359;28;20701;-80
2021/01/14 03:06:00;;;;;;;8.53;2.90;;;8.70;99.90;;;;;;5053675;28;20216;-80
2021/01/14 03:08:26;;;;;;;9.70;2.97;;;8.70;99.90;;;;;;5053348;28;20733;-80
2021/01/14 03:10:53;;;;;;;9.93;2.90;;;8.70;99.90;;;;;;5058716;28;20236;-80
2021/01/14 03:13:19;;;;;;;7.63;2.60;;;8.70;99.90;;;;;;5056256;28;20681;-80
2021/01/14 03:15:46;;;;;;;9.47;2.77;;;8.70;99.90;;;;;;5052901;28;20234;-80
2021/01/14 03:18:13;;;;;;;10.70;2.97;;;8.70;99.90;;;;;;5053470;28;20235;-80
2021/01/14 03:20:40;;;;;;;8.33;2.37;;;8.70;99.90;;;;;;5052917;28;20308;-81
2021/01/14 03:23:06;;;;;;;7.83;2.40;;;8.70;99.90;;;;;;5053076;28;20294;-80
2021/01/14 03:25:32;;;;;;;9.03;2.40;;;8.70;99.90;;;;;;5053190;28;20630;-80
2021/01/14 03:27:59;;;;;;;7.63;2.57;;;8.80;99.90;;;;;;5053278;28;20237;-80
2021/01/14 03:30:26;;;;;;;8.57;2.10;;;8.80;99.90;;;;;;5052638;28;20647;-80
2021/01/14 03:32:55;;;;;;;6.80;2.23;;;8.80;99.90;;;;;;5053300;28;20205;-80
2021/01/14 03:35:23;;;;;;;7.10;2.13;;;8.80;99.90;;;;;;5051973;28;20721;-80
2021/01/14 03:37:49;;;;;;;5.03;2.17;;;8.80;99.90;;;;;;5052978;28;20281;-81
2021/01/14 03:40:16;;;;;;;5.57;1.83;;;8.80;99.90;;;;;;5052727;28;20260;-80
2021/01/14 03:42:43;;;;;;;7.77;1.93;;;8.80;99.90;;;;;;5067620;28;20573;-80
2021/01/14 03:45:10;;;;;;;5.77;1.80;;;8.80;99.90;;;;;;5052440;28;20311;-80
2021/01/14 03:47:37;;;;;;;8.43;2.30;;;8.80;99.90;;;;;;5052770;28;20231;-80
2021/01/14 03:50:04;;;;;;;6.20;1.80;;;8.80;99.90;;;;;;5052820;28;20226;-80
2021/01/14 03:52:31;;;;;;;7.00;1.80;;;8.80;99.90;;;;;;5052750;28;20241;-80
2021/01/14 03:54:57;;;;;;;8.77;2.47;;;8.90;99.90;;;;;;5052954;28;20228;-80
2021/01/14 03:57:24;;;;;;;5.37;2.17;;;8.90;99.90;;;;;;5052684;28;20238;-80
2021/01/14 03:59:50;;;;;;;6.83;1.70;;;8.90;99.90;;;;;;5052279;28;20733;-80
2021/01/14 04:02:17;;;;;;;5.57;1.80;;;8.90;99.90;;;;;;5052684;28;20238;-80
2021/01/14 04:04:44;;;;;;;12.63;2.30;;;8.90;99.90;;;;;;5051884;28;20261;-80
2021/01/14 04:07:11;;;;;;;10.73;2.00;;;8.90;99.90;;;;;;5052299;28;20205;-80
2021/01/14 04:09:40;;;;;;;5.47;2.10;;;8.90;99.90;;;;;;5051431;28;20733;-80
2021/01/14 04:12:08;;;;;;;7.87;2.10;;;8.90;99.90;;;;;;5052371;28;20292;-80
2021/01/14 04:14:35;;;;;;;7.37;2.07;;;8.90;99.90;;;;;;5051805;28;20226;-80
2021/01/14 04:17:01;;;;;;;10.77;2.30;;;8.90;99.90;;;;;;5052713;28;20616;-80
2021/01/14 04:19:28;;;;;;;8.00;1.87;;;8.90;99.90;;;;;;5051779;28;20295;-80
2021/01/14 04:21:54;;;;;;;7.00;1.87;;;8.90;99.90;;;;;;5051833;28;20688;-80
2021/01/14 04:24:21;;;;;;;6.23;2.40;;;8.90;99.90;;;;;;5052611;28;20310;-80
2021/01/14 04:26:49;;;;;;;6.33;1.97;;;8.90;99.90;;;;;;5052696;28;20256;-80
2021/01/14 04:29:15;;;;;;;10.23;2.13;;;8.90;99.90;;;;;;5051902;28;20209;-80
2021/01/14 04:31:42;;;;;;;8.00;2.10;;;8.90;99.90;;;;;;5051902;28;20674;-80
2021/01/14 04:34:08;;;;;;;10.77;2.50;;;8.90;99.90;;;;;;5052559;28;20234;-80
2021/01/14 04:36:35;;;;;;;7.60;2.00;;;8.90;99.90;;;;;;5051750;28;20237;-80
2021/01/14 04:39:01;;;;;;;8.83;1.90;;;8.90;99.90;;;;;;5051817;28;20200;-80
2021/01/14 04:41:34;;;;;;;10.07;1.83;;;8.90;99.90;;;;;;5052115;28;20246;-80
2021/01/14 04:44:03;;;;;;;7.70;1.57;;;8.90;99.90;;;;;;5051723;28;20294;-80
2021/01/14 04:46:34;;;;;;;10.03;1.63;;;9.00;99.90;;;;;;5062737;28;20228;-80
2021/01/14 04:49:01;;;;;;;5.47;1.43;;;9.00;99.90;;;;;;5071846;28;20245;-80
2021/01/14 04:51:29;;;;;;;7.60;1.77;;;9.00;99.90;;;;;;5071952;28;20236;-79
2021/01/14 04:54:02;;;;;;;6.63;1.73;;;8.90;99.90;;;;;;5071925;28;20202;-80
2021/01/14 04:56:34;;;;;;;9.63;2.20;;;8.90;99.90;;;;;;5064059;28;20202;-80
2021/01/14 04:59:03;;;;;;;6.33;1.43;;;8.90;99.90;;;;;;5052191;28;20229;-80
2021/01/14 05:01:34;;;;;;;7.47;1.70;;;8.90;99.90;;;;;;5052807;28;20193;-80
2021/01/14 05:04:05;;;;;;;6.37;1.70;;;8.90;99.90;;;;;;5051609;28;20231;-81
2021/01/14 05:06:35;;;;;;;6.13;1.53;;;8.90;99.90;;;;;;5051548;28;20195;-81
2021/01/14 05:09:04;;;;;;;6.37;1.50;;;8.90;99.90;;;;;;5051936;28;20296;-81
2021/01/14 05:11:40;;;;;;;3.30;1.37;;;8.90;99.90;;;;;;5051585;28;20232;-81
2021/01/14 05:14:08;;;;;;;5.80;1.43;;;8.90;99.90;;;;;;5052087;28;20286;-82
2021/01/14 05:16:35;;;;;;;7.77;1.30;;;8.90;99.90;;;;;;5051677;28;20291;-82
2021/01/14 05:19:01;;;;;;;6.50;1.90;;;8.90;99.90;;;;;;5050978;28;20261;-81
2021/01/14 05:21:32;;;;;;;8.77;1.60;;;8.90;99.90;;;;;;5053530;28;20234;-81
2021/01/14 05:24:09;;;;;;;6.97;1.70;;;8.90;99.90;;;;;;5055361;28;20220;-81
2021/01/14 05:26:36;;;;;;;7.63;2.10;;;8.90;99.90;;;;;;5056569;28;20208;-82
2021/01/14 05:29:14;;;;;;;5.47;1.50;;;8.90;99.90;;;;;;5062753;28;20245;-81
2021/01/14 05:31:41;;;;;;;8.23;1.40;;;8.90;99.90;;;;;;5055443;28;20215;-81
2021/01/14 05:34:08;;;;;;;7.50;1.63;;;8.80;99.90;;;;;;5054897;28;20294;-81
2021/01/14 05:36:55;;;;;;;5.23;1.47;;;8.80;99.90;;;;;;5054988;28;20677;-82
2021/01/14 05:39:22;;;;;;;7.20;2.13;;;8.80;99.90;;;;;;5056122;28;20254;-81
2021/01/14 05:41:50;;;;;;;13.77;4.13;;;8.90;99.90;;;;;;5054023;28;20258;-81
2021/01/14 05:44:17;;;;;;;20.20;9.17;;;8.80;99.90;;;;;;5055185;28;20252;-81
2021/01/14 05:46:44;;;;;;;20.97;9.70;;;8.80;99.90;;;;;;5055356;28;20297;-81
2021/01/14 05:49:12;;;;;;;20.83;8.03;;;8.90;99.90;;;;;;5055164;28;20231;-81
2021/01/14 05:51:39;;;;;;;16.37;6.97;;;8.90;99.90;;;;;;5054614;28;20679;-82
2021/01/14 05:54:07;;;;;;;14.73;6.60;;;8.90;99.90;;;;;;5054224;28;20219;-82
2021/01/14 05:56:43;;;;;;;8.47;3.30;;;8.90;99.90;;;;;;5055148;28;20223;-82
2021/01/14 05:59:11;;;;;;;9.77;4.20;;;8.90;99.90;;;;;;5054852;28;20306;-81
2021/01/14 06:01:52;;;;;;;9.90;2.73;;;8.90;99.90;;;;;;5067675;28;20211;-81
2021/01/14 06:04:20;;;;;;;7.57;3.63;;;9.00;99.90;;;;;;5054462;28;20293;-81
2021/01/14 06:06:48;;;;;;;10.43;3.30;;;9.00;99.90;;;;;;5054673;28;20237;-80
2021/01/14 06:09:16;;;;;;;8.87;2.13;;;9.00;99.90;;;;;;5054431;28;20197;-80
2021/01/14 06:11:43;;;;;;;6.77;2.03;;;9.00;99.90;;;;;;5054489;28;20228;-80
2021/01/14 06:14:29;;;;;;;7.63;1.73;;;9.00;99.90;;;;;;5054415;28;20689;-80
2021/01/14 06:16:59;;;;;;;6.30;1.90;;;9.00;99.90;;;;;;5054171;28;20203;-80
2021/01/14 06:19:27;;;;;;;5.37;1.80;;;9.00;99.90;;;;;;5056854;28;20259;-80
2021/01/14 06:21:56;;;;;;;6.93;1.57;;;9.00;99.90;;;;;;5054339;28;20320;-81
2021/01/14 06:24:25;;;;;;;7.37;2.20;;;9.00;99.90;;;;;;5053674;28;20201;-80
2021/01/14 06:26:53;;;;;;;5.03;1.83;;;9.00;99.90;;;;;;5053802;28;20203;-80
2021/01/14 06:29:22;;;;;;;8.70;2.00;;;9.00;99.90;;;;;;5053645;28;20288;-80
2021/01/14 06:31:49;;;;;;;6.23;1.60;;;9.00;99.90;;;;;;5053716;28;20242;-82
2021/01/14 06:34:19;;;;;;;6.23;1.50;;;9.00;99.90;;;;;;5053484;28;20281;-80
2021/01/14 06:36:48;;;;;;;8.60;1.77;;;9.00;99.90;;;;;;5054340;28;20249;-79
2021/01/14 06:39:18;;;;;;;7.67;2.10;;;9.00;99.90;;;;;;5057386;28;20201;-79
2021/01/14 06:41:45;;;;;;;7.93;1.97;;;9.00;99.90;;;;;;5053386;28;20201;-80
2021/01/14 06:44:14;;;;;;;7.77;1.93;;;9.00;99.90;;;;;;5054716;28;20232;-80
2021/01/14 06:46:41;;;;;;;7.40;2.30;;;9.10;99.90;;;;;;5048540;28;20213;-81
2021/01/14 06:49:11;;;;;;;8.77;2.00;;;9.10;99.90;;;;;;5062744;28;20288;-81
2021/01/14 06:51:57;;;;;;;6.30;2.00;;;9.10;99.90;;;;;;5054797;28;20236;-81
2021/01/14 06:54:26;;;;;;;5.70;1.90;;;9.10;99.90;;;;;;5069952;28;20727;-80
2021/01/14 06:56:57;;;;;;;10.90;2.70;;;9.20;99.90;;;;;;5065160;28;20200;-80
2021/01/14 06:59:25;;;;;;;9.30;3.20;;;9.20;99.90;;;;;;5053833;28;20255;-80
2021/01/14 07:02:13;;;;;;;5.17;2.50;;;9.20;99.90;;;;;;5053529;28;20284;-80
2021/01/14 07:04:53;;;;;;;5.40;2.17;;;9.20;99.90;;;;;;5051457;28;20742;-80
2021/01/14 07:07:30;;;;;;;9.97;3.30;;;9.20;99.90;;;;;;5052948;28;20196;-81
2021/01/14 07:10:06;;;;;;;7.63;2.47;;;9.20;99.90;;;;;;5051292;28;20224;-81
2021/01/14 07:12:34;;;;;;;6.87;1.90;;;9.10;99.90;;;;;;5044898;28;20275;-80
2021/01/14 07:15:07;;;;;;;5.57;2.00;;;9.10;99.90;;;;;;5052905;28;20227;-81
2021/01/14 07:17:36;;;;;;;9.07;2.90;;;9.10;99.90;;;;;;5053798;28;20227;-80
2021/01/14 07:20:06;;;;;;;7.33;2.97;;;9.10;99.90;;;;;;5055617;28;20227;-81
2021/01/14 07:22:39;;;;;;;10.10;2.90;;;9.10;99.90;;;;;;5052007;28;21429;-80
2021/01/14 07:25:08;;;;;;;7.10;3.20;;;9.10;99.90;;;;;;5052226;28;20333;-78
2021/01/14 07:27:37;;;;;;;7.40;3.10;;;9.10;99.90;;;;;;5056678;28;20196;-79
2021/01/14 07:30:06;;;;;;;9.80;3.20;;;9.00;99.90;;;;;;5056728;28;20700;-79
2021/01/14 07:32:58;;;;;;;8.23;3.30;;;9.10;99.90;;;;;;5066487;28;20680;-80
2021/01/14 07:35:38;;;;;;;7.90;3.50;;;9.10;99.90;;;;;;5042572;28;20193;-80
2021/01/14 07:38:06;;;;;;;6.90;4.07;;;9.10;99.90;;;;;;5051509;28;20202;-80
2021/01/14 07:40:34;;;;;;;9.73;3.53;;;9.10;99.90;;;;;;5064670;28;20294;-80
2021/01/14 07:43:02;;;;;;;8.57;3.83;;;9.10;99.90;;;;;;5053108;28;20616;-79
2021/01/14 07:45:29;;;;;;;11.07;4.23;;;9.10;99.90;;;;;;5065467;28;20218;-80
2021/01/14 07:48:15;;;;;;;8.67;4.13;;;9.10;99.90;;;;;;5053056;28;20606;-80
2021/01/14 07:50:49;;;;;;;12.17;4.73;;;9.10;99.90;;;;;;5052312;28;20233;-80
2021/01/14 07:53:17;;;;;;;11.23;4.67;;;9.20;99.90;;;;;;5051681;28;20207;-80
2021/01/14 07:55:43;;;;;;;8.47;5.13;;;9.20;99.90;;;;;;5055385;28;20254;-80
2021/01/14 07:58:23;;;;;;;11.33;6.23;;;9.20;99.90;;;;;;5052446;28;20224;-80
2021/01/14 08:01:00;;;;;;;12.60;6.27;;;9.20;99.90;;;;;;5057501;28;20211;-79
2021/01/14 08:03:30;;;;;;;12.33;6.63;;;9.20;99.90;;;;;;5051884;28;20216;-80
2021/01/14 08:05:57;;;;;;;13.43;6.47;;;9.30;99.90;;;;;;5060405;28;20222;-80
2021/01/14 08:08:29;;;;;;;15.33;6.47;;;9.30;99.90;;;;;;5061403;28;20203;-80
2021/01/14 08:11:11;;;;;;;13.03;6.30;;;9.30;99.90;;;;;;5059103;28;20745;-79
2021/01/14 08:13:59;;;;;;;13.53;6.73;;;9.30;99.90;;;;;;5057046;28;20246;-80
2021/01/14 08:16:34;;;;;;;13.17;6.57;;;9.30;99.90;;;;;;5052235;28;20223;-80
2021/01/14 08:19:30;;;;;;;17.07;6.47;;;9.30;99.90;;;;;;5051301;28;20286;-80
2021/01/14 08:22:07;;;;;;;14.07;6.27;;;9.40;99.90;;;;;;5056154;28;20311;-80
2021/01/14 08:24:37;;;;;;;13.80;5.97;;;9.40;99.90;;;;;;5059368;28;20584;-80
2021/01/14 08:27:06;;;;;;;13.87;5.60;;;9.40;99.90;;;;;;5051754;28;20203;-80
2021/01/14 08:29:42;;;;;;;15.50;5.80;;;9.40;99.90;;;;;;5051605;28;20245;-80
2021/01/14 08:32:41;;;;;;;11.77;5.03;;;9.50;99.90;;;;;;5044655;28;20226;-80
2021/01/14 08:35:17;;;;;;;19.23;5.30;;;9.50;99.90;;;;;;5045789;28;20219;-80
2021/01/14 08:37:48;;;;;;;12.23;5.00;;;9.50;99.90;;;;;;5050185;28;20202;-80
2021/01/14 08:40:17;;;;;;;12.57;5.27;;;9.50;99.90;;;;;;5051878;28;20198;-80
2021/01/14 08:42:45;;;;;;;14.33;5.30;;;9.60;99.90;;;;;;5051387;28;20230;-80
2021/01/14 08:45:18;;;;;;;19.37;5.63;;;9.60;99.90;;;;;;5051890;28;20306;-80
2021/01/14 08:48:03;;;;;;;22.73;6.90;;;9.60;99.90;;;;;;5050762;28;20570;-80
2021/01/14 08:50:58;;;;;;;19.83;5.70;;;9.60;99.90;;;;;;5051246;28;20203;-79
2021/01/14 08:53:37;;;;;;;11.13;4.83;;;9.70;99.90;;;;;;5051175;28;20199;-78
2021/01/14 08:56:07;;;;;;;9.13;4.93;;;9.70;99.90;;;;;;5054837;28;20222;-79
2021/01/14 08:58:36;;;;;;;10.43;5.33;;;9.70;99.90;;;;;;5049681;28;20199;-78
2021/01/14 09:01:03;;;;;;;13.87;5.53;;;9.70;99.90;;;;;;5055193;28;20227;-80
2021/01/14 09:03:29;;;;;;;12.30;5.13;;;9.70;99.90;;;;;;5063003;28;20229;-80
2021/01/14 09:05:56;;;;;;;11.50;4.80;;;9.70;99.90;;;;;;5056963;28;20309;-79
2021/01/14 09:08:22;;;;;;;8.80;4.60;;;9.80;99.90;;;;;;5057302;28;20231;-79
2021/01/14 09:11:04;;;;;;;15.13;4.93;;;9.80;99.90;;;;;;5058066;28;20200;-79
2021/01/14 09:13:33;;;;;;;12.47;5.53;;;9.80;99.90;;;;;;5060825;28;20207;-79
2021/01/14 09:16:08;;;;;;;12.03;5.00;;;9.90;99.90;;;;;;5053932;28;20196;-79
2021/01/14 09:18:36;;;;;;;12.57;5.37;;;9.90;99.90;;;;;;5055799;28;20785;-80
2021/01/14 09:21:04;;;;;;;12.27;5.10;;;9.90;99.90;;;;;;5057611;28;20274;-80
2021/01/14 09:23:35;;;;;;;7.80;3.73;;;9.90;99.90;;;;;;5052509;28;20252;-80
2021/01/14 09:26:03;;;;;;;11.70;4.13;;;10.00;99.90;;;;;;5056190;28;20222;-80
2021/01/14 09:28:32;;;;;;;11.00;4.20;;;10.00;99.90;;;;;;5059513;28;20224;-80
2021/01/14 09:31:01;;;;;;;10.87;4.50;;;10.00;99.90;;;;;;5058110;28;20556;-80
2021/01/14 09:33:29;;;;;;;10.70;4.50;;;10.10;99.90;;;;;;5053928;28;20690;-80
2021/01/14 09:36:01;;;;;;;10.63;4.40;;;10.10;99.90;;;;;;5054050;28;20192;-80
2021/01/14 09:38:28;;;;;;;11.03;5.30;;;10.10;99.90;;;;;;5068542;28;20260;-80
2021/01/14 09:41:12;;;;;;;9.80;5.27;;;10.20;99.90;;;;;;5056175;28;20202;-79
2021/01/14 09:43:42;;;;;;;8.97;4.63;;;10.20;99.90;;;;;;5046910;28;20198;-79
2021/01/14 09:46:13;;;;;;;9.90;4.30;;;10.30;99.90;;;;;;5053823;28;20270;-79
2021/01/14 09:48:40;;;;;;;9.73;4.30;;;10.30;99.90;;;;;;5054208;28;20281;-79
2021/01/14 09:51:11;;;;;;;7.73;3.70;;;10.30;99.90;;;;;;5054090;28;20204;-79
2021/01/14 09:53:49;;;;;;;7.90;3.40;;;10.30;99.90;;;;;;5060564;28;20218;-80
2021/01/14 09:56:30;;;;;;;8.33;3.43;;;10.30;99.90;;;;;;5054753;28;20242;-79
2021/01/14 09:59:01;;;;;;;9.60;4.10;;;10.40;99.90;;;;;;5054411;28;20210;-79
2021/01/14 10:01:39;;;;;;;10.77;3.67;;;10.40;99.90;;;;;;5045455;28;20230;-80
2021/01/14 10:04:10;;;;;;;8.10;3.83;;;10.40;99.90;;;;;;5054459;28;20230;-80
2021/01/14 10:06:44;;;;;;;5.33;3.33;;;10.50;99.90;;;;;;5053198;28;20297;-80
2021/01/14 10:09:39;;;;;;;5.43;3.70;;;10.60;99.90;;;;;;5053467;28;20238;-79
2021/01/14 10:12:46;;;;;;;5.47;3.33;;;10.60;99.90;;;;;;5053596;28;20250;-79
2021/01/14 10:15:21;;;;;;;6.07;3.50;;;10.60;99.90;;;;;;5050158;28;20235;-79
2021/01/14 10:17:47;;;;;;;6.07;3.40;;;10.70;99.90;;;;;;5053855;28;20247;-79
2021/01/14 10:20:14;;;;;;;5.93;3.40;;;10.80;99.90;;;;;;5053642;28;20659;-80
2021/01/14 10:22:48;;;;;;;6.50;3.43;;;10.80;99.90;;;;;;5052179;28;20268;-80
2021/01/14 10:25:15;;;;;;;4.30;3.73;;;10.80;99.90;;;;;;5050575;28;20254;-80
2021/01/14 10:27:42;;;;;;;5.80;4.10;;;10.80;99.90;;;;;;5054539;28;20282;-80
2021/01/14 10:30:20;;;;;;;6.70;3.50;;;10.80;99.90;;;;;;5053535;28;20235;-79
2021/01/14 10:32:47;;;;;;;7.10;3.97;;;10.80;99.90;;;;;;5053913;28;20245;-79
2021/01/14 10:35:25;;;;;;;19.00;5.43;;;10.80;99.90;;;;;;5056862;28;20239;-79
2021/01/14 10:38:08;;;;;;;9.20;5.33;;;10.90;99.90;;;;;;5055949;28;20266;-80
2021/01/14 10:40:40;;;;;;;6.60;4.30;;;10.90;99.90;;;;;;5053013;28;20227;-80
2021/01/14 10:43:08;;;;;;;7.03;4.60;;;10.90;99.90;;;;;;5052570;28;20703;-79
2021/01/14 10:45:36;;;;;;;5.20;4.13;;;10.90;99.90;;;;;;5053724;28;20254;-79
2021/01/14 10:48:13;;;;;;;5.37;3.43;;;10.90;99.90;;;;;;5053039;28;20254;-79
2021/01/14 10:50:48;;;;;;;7.30;3.20;;;11.00;99.90;;;;;;5057299;28;20203;-79
2021/01/14 10:53:25;;;;;;;5.97;4.50;;;11.10;99.90;;;;;;5053096;28;20289;-78
2021/01/14 10:56:02;;;;;;;4.63;4.13;;;11.10;99.90;;;;;;5052712;28;20202;-79
2021/01/14 10:58:28;;;;;;;7.87;5.80;;;11.10;99.90;;;;;;5053054;28;20662;-79
2021/01/14 11:00:56;;;;;;;7.37;4.93;;;11.10;99.90;;;;;;5052485;28;20741;-78
2021/01/14 11:03:24;;;;;;;6.23;5.50;;;11.00;99.90;;;;;;5053036;28;20227;-76
2021/01/14 11:05:51;;;;;;;7.27;5.50;;;11.00;99.90;;;;;;5051949;28;20322;-76
2021/01/14 11:08:19;;;;;;;9.03;5.97;;;11.00;99.90;;;;;;5053640;28;20254;-77
2021/01/14 11:10:47;;;;;;;8.17;6.37;;;11.00;99.90;;;;;;5052849;28;20231;-77
2021/01/14 11:13:16;;;;;;;9.37;7.03;;;11.00;99.90;;;;;;5053383;28;20196;-77
2021/01/14 11:15:43;;;;;;;7.07;6.10;;;11.00;99.90;;;;;;5064191;28;20691;-76
2021/01/14 11:18:11;;;;;;;7.90;5.00;;;11.00;99.90;;;;;;5058302;28;20224;-76
2021/01/14 11:20:38;;;;;;;5.90;5.30;;;11.10;99.90;;;;;;5056257;28;20729;-76
2021/01/14 11:23:04;;;;;;;4.83;4.33;;;11.00;99.90;;;;;;5060737;28;20239;-77
2021/01/14 11:25:31;;;;;;;6.23;5.50;;;11.00;99.90;;;;;;5063612;28;20303;-76
2021/01/14 11:27:58;;;;;;;5.53;4.43;;;11.00;99.90;;;;;;5060843;28;20686;-76
2021/01/14 11:30:25;;;;;;;6.80;4.90;;;11.00;99.90;;;;;;5066129;28;20242;-76
2021/01/14 11:32:51;;;;;;;4.57;4.17;;;11.00;99.90;;;;;;5050890;28;20250;-76
2021/01/14 11:35:19;;;;;;;5.00;4.47;;;11.10;99.90;;;;;;5063759;28;20709;-76
2021/01/14 11:37:45;;;;;;;5.70;4.90;;;11.10;99.90;;;;;;5063684;28;20235;-77
2021/01/14 11:40:13;;;;;;;5.20;4.37;;;11.10;99.90;;;;;;5051791;28;20679;-76
2021/01/14 11:42:39;;;;;;;4.20;3.77;;;11.10;99.90;;;;;;5053408;28;20645;-76
2021/01/14 11:45:07;;;;;;;6.17;3.73;;;11.10;99.90;;;;;;5051813;28;20650;-76
2021/01/14 11:47:33;;;;;;;3.50;3.20;;;11.20;99.90;;;;;;5051345;28;20666;-76
2021/01/14 11:50:00;;;;;;;3.60;3.30;;;11.30;99.90;;;;;;5051794;28;20231;-77
2021/01/14 11:52:27;;;;;;;3.53;3.23;;;11.40;99.90;;;;;;5061416;28;20245;-76
2021/01/14 11:54:54;;;;;;;3.43;3.10;;;11.50;99.90;;;;;;5057955;28;20206;-76
2021/01/14 11:57:20;;;;;;;2.87;2.50;;;11.50;99.90;;;;;;5050904;28;20532;-76
2021/01/14 11:59:46;;;;;;;3.60;2.37;;;11.50;99.90;;;;;;5051926;28;20715;-76
2021/01/14 12:02:13;;;;;;;3.90;2.70;;;11.60;99.90;;;;;;5051725;28;20228;-75
2021/01/14 12:04:40;;;;;;;3.30;2.43;;;11.50;99.90;;;;;;5054869;28;20206;-76
2021/01/14 12:07:06;;;;;;;2.70;2.20;;;11.50;99.90;;;;;;5053915;28;20310;-75
2021/01/14 12:09:33;;;;;;;2.10;1.70;;;11.50;99.90;;;;;;5051874;28;20199;-75
2021/01/14 12:12:00;;;;;;;1.87;1.40;;;11.50;99.90;;;;;;5051515;28;20230;-75
2021/01/14 12:14:26;;;;;;;2.23;1.17;;;11.50;99.90;;;;;;5050571;28;20651;-76
2021/01/14 12:16:53;;;;;;;1.17;0.60;;;11.50;99.90;;;;;;5058793;28;20289;-76
2021/01/14 12:19:19;;;;;;;0.53;0.53;;;11.50;99.90;;;;;;5051513;28;20254;-75
2021/01/14 12:21:46;;;;;;;2.30;0.60;;;11.50;99.90;;;;;;5050340;28;20262;-76
2021/01/14 12:24:12;;;;;;;0.73;0.50;;;11.50;99.90;;;;;;5051351;28;20279;-76
2021/01/14 12:26:39;;;;;;;1.73;0.50;;;11.50;99.90;;;;;;5051012;28;20653;-76
2021/01/14 12:29:06;;;;;;;1.40;0.70;;;11.50;99.90;;;;;;5051649;28;20250;-76
2021/01/14 12:31:36;;;;;;;1.33;0.50;;;11.80;99.90;;;;;;5051276;28;20236;-76
2021/01/14 12:34:02;;;;;;;0.90;0.40;;;12.20;99.90;;;;;;5057349;28;20235;-76
2021/01/14 12:36:29;;;;;;;0.77;0.23;;;12.50;99.90;;;;;;5051817;28;20227;-75
2021/01/14 12:38:55;;;;;;;2.77;0.40;;;12.80;99.90;;;;;;5050480;28;20282;-76
2021/01/14 12:41:30;;;;;;;2.13;0.40;;;13.00;99.90;;;;;;5051149;28;20322;-76
2021/01/14 12:43:57;;;;;;;1.07;0.50;;;12.90;99.90;;;;;;5053647;28;20203;-75
2021/01/14 12:46:32;;;;;;;1.80;0.57;;;13.10;99.90;;;;;;5051439;28;20265;-76
2021/01/14 12:48:59;;;;;;;1.13;0.30;;;12.70;99.90;;;;;;5058303;28;20705;-75
2021/01/14 12:51:25;;;;;;;0.77;0.40;;;12.50;99.90;;;;;;5051401;28;20683;-75
2021/01/14 12:53:52;;;;;;;1.80;0.40;;;12.30;99.90;;;;;;5050731;28;20645;-75
2021/01/14 12:56:18;;;;;;;1.73;0.40;;;12.30;99.90;;;;;;5054758;28;20223;-75
2021/01/14 12:58:45;;;;;;;2.10;0.50;;;12.40;99.90;;;;;;5058126;28;20235;-76
2021/01/14 13:01:12;;;;;;;1.73;0.40;;;12.30;99.90;;;;;;5053113;28;20234;-76
2021/01/14 13:03:41;;;;;;;1.17;0.40;;;12.20;99.90;;;;;;5063187;28;20230;-76